createdAt,value
2018-09-06T00:02:17.769Z,62.10
2018-09-06T00:04:51.298Z,61.99
2018-09-06T00:07:24.700Z,61.86
2018-09-06T00:09:58.121Z,62.02
2018-09-06T00:12:31.540Z,62.15
2018-09-06T00:15:05.033Z,61.96
2018-09-06T00:17:38.416Z,62.32
2018-09-06T00:20:11.914Z,62.27
2018-09-06T00:22:45.339Z,62.23
2018-09-06T00:25:18.922Z,62.26
2018-09-06T00:27:52.327Z,62.13
2018-09-06T00:30:25.748Z,62.31
2018-09-06T00:32:59.184Z,62.40
2018-09-06T00:35:32.638Z,62.59
2018-09-06T00:38:06.062Z,62.65
2018-09-06T00:40:39.923Z,62.36
2018-09-06T00:43:13.344Z,62.57
2018-09-06T00:45:46.880Z,62.60
2018-09-06T00:48:20.359Z,62.52
2018-09-06T00:50:53.783Z,62.66
2018-09-06T00:53:27.209Z,62.94
2018-09-06T00:56:00.647Z,62.71
2018-09-06T00:58:34.085Z,62.92
2018-09-06T01:01:07.511Z,62.70
2018-09-06T01:03:40.916Z,62.58
2018-09-06T01:06:14.391Z,62.74
2018-09-06T01:08:47.864Z,62.87
2018-09-06T01:11:21.348Z,62.82
2018-09-06T01:13:54.789Z,62.67
2018-09-06T01:16:28.186Z,62.88
2018-09-06T01:19:01.601Z,62.66
2018-09-06T01:21:35.076Z,62.74
2018-09-06T01:24:08.520Z,62.63
2018-09-06T01:26:42.031Z,62.55
2018-09-06T01:29:15.404Z,62.17
2018-09-06T01:31:48.885Z,62.52
2018-09-06T01:34:22.283Z,62.26
2018-09-06T01:36:55.768Z,62.33
2018-09-06T01:39:29.165Z,62.52
2018-09-06T01:42:02.589Z,62.95
2018-09-06T01:44:36.016Z,62.88
2018-09-06T01:47:09.434Z,63.11
2018-09-06T01:49:42.840Z,63.22
2018-09-06T01:52:16.254Z,62.99
2018-09-06T01:54:49.698Z,62.60
2018-09-06T01:57:23.136Z,62.76
2018-09-06T01:59:56.577Z,62.77
2018-09-06T02:02:30.012Z,62.68
2018-09-06T02:05:03.405Z,62.65
2018-09-06T02:07:36.815Z,62.52
2018-09-06T02:10:10.239Z,62.53
2018-09-06T02:12:43.643Z,62.67
2018-09-06T02:15:17.114Z,62.33
2018-09-06T02:17:50.575Z,62.14
2018-09-06T02:20:24.088Z,62.46
2018-09-06T02:22:57.625Z,62.35
2018-09-06T02:25:31.150Z,62.53
2018-09-06T02:28:04.585Z,63.10
2018-09-06T02:30:37.986Z,62.86
2018-09-06T02:33:11.460Z,62.92
2018-09-06T02:35:44.906Z,62.64
2018-09-06T02:38:18.366Z,63.20
2018-09-06T02:40:51.924Z,63.23
2018-09-06T02:43:25.525Z,63.16
2018-09-06T02:45:58.944Z,63.95
2018-09-06T02:48:37.418Z,63.95
2018-09-06T02:51:16.047Z,63.84
2018-09-06T02:53:49.682Z,63.70
2018-09-06T02:56:23.134Z,63.58
2018-09-06T02:58:56.544Z,63.25
2018-09-06T03:01:29.983Z,63.02
2018-09-06T03:04:03.479Z,63.54
2018-09-06T03:06:36.902Z,63.07
2018-09-06T03:09:11.233Z,63.26
2018-09-06T03:11:50.423Z,63.36
2018-09-06T03:14:24.093Z,63.32
2018-09-06T03:16:57.494Z,63.44
2018-09-06T03:19:30.954Z,63.11
2018-09-06T03:22:04.368Z,63.09
2018-09-06T03:24:37.859Z,63.00
2018-09-06T03:27:11.256Z,63.11
2018-09-06T03:29:44.781Z,62.92
2018-09-06T03:32:18.240Z,63.11
2018-09-06T03:34:51.729Z,62.89
2018-09-06T03:37:25.361Z,62.97
2018-09-06T03:39:58.956Z,62.85
2018-09-06T03:42:32.409Z,62.69
2018-09-06T03:45:05.958Z,62.89
2018-09-06T03:47:39.416Z,63.05
2018-09-06T03:50:12.832Z,62.76
2018-09-06T03:52:46.304Z,63.03
2018-09-06T03:55:19.757Z,62.84
2018-09-06T03:57:53.224Z,63.18
2018-09-06T04:00:26.667Z,63.54
2018-09-06T04:03:00.167Z,63.57
2018-09-06T04:05:33.608Z,63.38
2018-09-06T04:08:07.090Z,63.38
2018-09-06T04:10:40.529Z,63.53
2018-09-06T04:13:13.970Z,63.71
2018-09-06T04:15:47.357Z,63.68
2018-09-06T04:18:20.843Z,64.27
2018-09-06T04:20:54.197Z,64.09
2018-09-06T04:23:27.693Z,63.78
2018-09-06T04:26:01.173Z,63.98
2018-09-06T04:28:34.737Z,63.89
2018-09-06T04:31:08.237Z,63.69
2018-09-06T04:33:41.711Z,63.44
2018-09-06T04:36:15.289Z,63.71
2018-09-06T04:38:48.689Z,63.84
2018-09-06T04:41:22.116Z,64.18
2018-09-06T04:43:55.589Z,64.20
2018-09-06T04:46:29.061Z,63.87
2018-09-06T04:49:02.942Z,64.10
2018-09-06T04:51:36.404Z,64.66
2018-09-06T04:54:09.890Z,64.46
2018-09-06T04:56:44.156Z,63.93
2018-09-06T04:59:17.611Z,64.18
2018-09-06T05:01:51.051Z,64.26
2018-09-06T05:04:24.653Z,64.43
2018-09-06T05:06:58.064Z,63.94
2018-09-06T05:09:31.597Z,63.82
2018-09-06T05:12:05.060Z,63.84
2018-09-06T05:14:38.559Z,64.16
2018-09-06T05:17:12.003Z,64.40
2018-09-06T05:19:45.685Z,64.87
2018-09-06T05:22:19.087Z,64.89
2018-09-06T05:24:52.576Z,65.15
2018-09-06T05:27:26.100Z,64.47
2018-09-06T05:29:59.541Z,64.66
2018-09-06T05:32:33.097Z,65.16
2018-09-06T05:35:06.545Z,64.89
2018-09-06T05:37:40.068Z,65.34
2018-09-06T05:40:13.517Z,65.17
2018-09-06T05:42:46.968Z,64.86
2018-09-06T05:45:20.435Z,64.58
2018-09-06T05:47:59.902Z,64.98
2018-09-06T05:50:33.409Z,65.01
2018-09-06T05:53:06.861Z,65.44
2018-09-06T05:55:40.368Z,65.55
2018-09-06T05:58:13.819Z,65.65
2018-09-06T06:00:49.385Z,65.76
2018-09-06T06:03:23.038Z,65.10
2018-09-06T06:05:56.555Z,64.75
2018-09-06T06:08:42.178Z,64.88
2018-09-06T06:11:15.643Z,64.80
2018-09-06T06:13:49.208Z,64.98
2018-09-06T06:16:22.740Z,64.67
2018-09-06T06:18:56.184Z,65.03
2018-09-06T06:21:29.615Z,64.93
2018-09-06T06:24:03.253Z,64.59
2018-09-06T06:26:36.684Z,63.95
2018-09-06T06:29:10.137Z,64.49
2018-09-06T06:31:43.599Z,64.35
2018-09-06T06:34:17.012Z,64.40
2018-09-06T06:36:50.520Z,63.51
2018-09-06T06:39:23.970Z,63.12
2018-09-06T06:41:57.395Z,63.09
2018-09-06T06:44:30.806Z,63.23
2018-09-06T06:47:04.281Z,62.74
2018-09-06T06:49:37.720Z,62.84
2018-09-06T06:52:11.184Z,62.55
2018-09-06T06:54:44.603Z,62.10
2018-09-06T06:57:18.138Z,62.15
2018-09-06T06:59:51.553Z,61.35
2018-09-06T07:02:25.030Z,61.73
2018-09-06T07:04:58.505Z,60.62
2018-09-06T07:07:31.975Z,60.68
2018-09-06T07:10:09.246Z,60.78
2018-09-06T07:12:42.699Z,60.77
2018-09-06T07:15:16.134Z,60.62
2018-09-06T07:17:49.611Z,60.28
2018-09-06T07:20:23.029Z,59.73
2018-09-06T07:22:56.455Z,60.17
2018-09-06T07:25:29.918Z,60.65
2018-09-06T07:28:03.476Z,59.40
2018-09-06T07:30:36.965Z,58.73
2018-09-06T07:33:10.431Z,58.39
2018-09-06T07:35:43.793Z,58.09
2018-09-06T07:38:17.215Z,58.47
2018-09-06T07:40:50.643Z,57.06
2018-09-06T07:43:24.047Z,57.56
2018-09-06T07:45:57.488Z,56.99
2018-09-06T07:48:30.881Z,57.31
2018-09-06T07:51:04.327Z,56.33
2018-09-06T07:53:38.082Z,56.30
2018-09-06T07:56:11.740Z,56.26
2018-09-06T07:58:45.207Z,54.99
2018-09-06T08:01:18.769Z,55.30
2018-09-06T08:03:52.199Z,55.24
2018-09-06T08:06:25.603Z,54.56
2018-09-06T08:08:59.061Z,54.32
2018-09-06T08:11:32.515Z,53.03
2018-09-06T08:14:05.984Z,53.35
2018-09-06T08:16:39.529Z,53.03
2018-09-06T08:19:13.187Z,52.86
2018-09-06T08:21:46.696Z,53.33
2018-09-06T08:24:20.191Z,52.39
2018-09-06T08:26:53.542Z,52.49
2018-09-06T08:29:26.988Z,51.73
2018-09-06T08:32:00.416Z,51.17
2018-09-06T08:34:33.887Z,50.90
2018-09-06T08:37:07.344Z,51.93
2018-09-06T08:39:40.730Z,50.54
2018-09-06T08:42:14.129Z,49.85
2018-09-06T08:44:47.551Z,48.89
2018-09-06T08:47:23.853Z,48.18
2018-09-06T08:49:57.240Z,47.67
2018-09-06T08:52:30.657Z,48.00
2018-09-06T08:55:04.101Z,48.41
2018-09-06T08:57:37.501Z,48.20
2018-09-06T09:00:10.947Z,47.48
2018-09-06T09:02:44.443Z,47.25
2018-09-06T09:05:17.804Z,47.97
2018-09-06T09:07:51.296Z,48.31
2018-09-06T09:10:24.712Z,47.86
2018-09-06T09:12:58.206Z,48.31
2018-09-06T09:15:31.645Z,47.90
2018-09-06T09:18:05.128Z,46.44
2018-09-06T09:20:38.543Z,46.75
2018-09-06T09:23:12.055Z,47.57
2018-09-06T09:25:45.532Z,46.30
2018-09-06T09:28:18.967Z,46.92
2018-09-06T09:30:52.383Z,45.67
2018-09-06T09:33:25.789Z,45.65
2018-09-06T09:35:59.342Z,44.89
2018-09-06T09:38:32.715Z,45.06
2018-09-06T09:41:06.231Z,44.74
2018-09-06T09:43:39.985Z,44.70
2018-09-06T09:48:45.903Z,44.91
2018-09-06T09:51:19.344Z,44.09
2018-09-06T09:53:52.819Z,44.25
2018-09-06T09:56:26.223Z,42.78
2018-09-06T09:58:59.686Z,43.10
2018-09-06T10:01:38.245Z,43.29
2018-09-06T10:04:17.070Z,43.70
2018-09-06T10:06:55.750Z,43.65
2018-09-06T10:09:29.214Z,43.18
2018-09-06T10:12:02.593Z,43.71
2018-09-06T10:14:38.913Z,43.38
2018-09-06T10:17:12.304Z,41.81
2018-09-06T10:19:45.741Z,44.27
2018-09-06T10:22:19.120Z,44.71
2018-09-06T10:24:59.206Z,43.51
2018-09-06T10:27:32.816Z,43.72
2018-09-06T10:30:06.381Z,43.59
2018-09-06T10:32:40.531Z,44.24
2018-09-06T10:35:13.968Z,43.60
2018-09-06T10:37:47.468Z,43.40
2018-09-06T10:40:20.867Z,42.11
2018-09-06T10:42:54.830Z,41.42
2018-09-06T10:45:28.273Z,41.90
2018-09-06T10:48:01.696Z,41.78
2018-09-06T10:50:35.187Z,39.67
2018-09-06T10:53:08.641Z,39.13
2018-09-06T10:55:42.072Z,39.53
2018-09-06T10:58:15.496Z,38.94
2018-09-06T11:00:48.997Z,39.84
2018-09-06T11:03:22.447Z,39.18
2018-09-06T11:05:55.896Z,39.06
2018-09-06T11:08:29.488Z,38.04
2018-09-06T11:11:02.948Z,39.19
2018-09-06T11:13:36.356Z,37.43
2018-09-06T11:16:09.829Z,37.01
2018-09-06T11:18:43.225Z,36.22
2018-09-06T11:21:16.703Z,35.74
2018-09-06T11:23:50.043Z,35.30
2018-09-06T11:26:23.427Z,34.24
2018-09-06T11:28:56.812Z,36.22
2018-09-06T11:31:30.249Z,35.86
2018-09-06T11:34:03.609Z,35.15
2018-09-06T11:36:37.045Z,35.74
2018-09-06T11:39:10.881Z,34.85
2018-09-06T11:41:44.348Z,35.61
2018-09-06T11:44:17.769Z,35.62
2018-09-06T11:46:51.280Z,37.20
2018-09-06T11:49:24.662Z,36.96
2018-09-06T11:51:58.129Z,37.04
2018-09-06T11:54:31.600Z,36.21
2018-09-06T11:57:05.191Z,35.47
2018-09-06T11:59:38.583Z,34.89
2018-09-06T12:02:11.995Z,35.02
2018-09-06T12:04:45.407Z,35.59
2018-09-06T12:07:18.810Z,35.85
2018-09-06T12:09:52.226Z,35.82
2018-09-06T12:12:25.642Z,35.91
2018-09-06T12:14:59.046Z,35.59
2018-09-06T12:17:32.499Z,35.06
2018-09-06T12:20:06.124Z,36.10
2018-09-06T12:22:39.688Z,35.90
2018-09-06T12:25:13.193Z,35.72
2018-09-06T12:27:46.580Z,34.35
2018-09-06T12:30:20.900Z,34.75
2018-09-06T12:32:54.287Z,34.44
2018-09-06T12:35:27.699Z,35.08
2018-09-06T12:38:01.144Z,34.90
2018-09-06T12:40:34.582Z,34.46
2018-09-06T12:43:08.025Z,33.64
2018-09-06T12:45:41.491Z,34.20
2018-09-06T12:48:14.916Z,34.18
2018-09-06T12:50:48.324Z,34.63
2018-09-06T12:53:21.760Z,34.61
2018-09-06T12:55:55.276Z,34.69
2018-09-06T12:58:28.676Z,35.35
2018-09-06T13:01:02.180Z,34.97
2018-09-06T13:03:35.630Z,34.42
2018-09-06T13:06:09.133Z,34.44
2018-09-06T13:08:42.536Z,34.38
2018-09-06T13:11:16.004Z,34.78
2018-09-06T13:13:50.047Z,34.24
2018-09-06T13:16:23.464Z,35.03
2018-09-06T13:18:56.943Z,34.53
2018-09-06T13:21:30.359Z,34.46
2018-09-06T13:24:03.748Z,35.07
2018-09-06T13:26:37.197Z,34.34
2018-09-06T13:29:10.673Z,35.05
2018-09-06T13:31:44.124Z,35.79
2018-09-06T13:34:17.510Z,34.79
2018-09-06T13:36:50.917Z,34.39
2018-09-06T13:39:24.495Z,35.56
2018-09-06T13:41:57.957Z,35.19
2018-09-06T13:44:31.345Z,35.65
2018-09-06T13:47:04.771Z,33.36
2018-09-06T13:49:38.184Z,35.43
2018-09-06T13:52:18.217Z,34.12
2018-09-06T13:54:51.530Z,34.95
2018-09-06T13:57:25.031Z,34.21
2018-09-06T13:59:58.479Z,32.79
2018-09-06T14:02:31.848Z,33.65
2018-09-06T14:05:05.311Z,33.71
2018-09-06T14:07:38.843Z,34.49
2018-09-06T14:10:12.232Z,34.72
2018-09-06T14:12:45.629Z,33.72
2018-09-06T14:15:19.051Z,33.41
2018-09-06T14:17:52.459Z,33.75
2018-09-06T14:20:25.867Z,35.33
2018-09-06T14:22:59.279Z,34.69
2018-09-06T14:25:33.731Z,35.10
2018-09-06T14:28:07.197Z,34.09
2018-09-06T14:30:40.629Z,34.57
2018-09-06T14:33:14.061Z,35.53
2018-09-06T14:35:47.451Z,33.76
2018-09-06T14:38:39.210Z,34.19
2018-09-06T14:41:12.546Z,35.69
2018-09-06T14:43:45.922Z,34.93
2018-09-06T14:46:19.218Z,34.15
2018-09-06T14:48:53.075Z,34.16
2018-09-06T14:51:26.413Z,34.60
2018-09-06T14:53:59.826Z,34.94
2018-09-06T14:56:34.177Z,34.56
2018-09-06T14:59:07.503Z,34.93
2018-09-06T15:01:40.850Z,34.14
2018-09-06T15:04:14.297Z,34.67
2018-09-06T15:06:47.589Z,34.70
2018-09-06T15:09:21.393Z,34.31
2018-09-06T15:11:54.921Z,35.35
2018-09-06T15:14:28.272Z,35.60
2018-09-06T15:17:01.595Z,34.55
2018-09-06T15:19:35.692Z,34.62
2018-09-06T15:22:09.445Z,36.19
2018-09-06T15:24:42.804Z,35.89
2018-09-06T15:27:16.115Z,35.57
2018-09-06T15:29:49.469Z,35.27
2018-09-06T15:32:23.530Z,34.45
2018-09-06T15:34:56.835Z,34.55
2018-09-06T15:37:30.157Z,34.60
2018-09-06T15:40:03.500Z,34.30
2018-09-06T15:42:38.785Z,34.24
2018-09-06T15:45:12.122Z,34.84
2018-09-06T15:47:45.437Z,35.65
2018-09-06T15:50:18.760Z,34.89
2018-09-06T15:52:52.325Z,36.24
2018-09-06T15:55:25.634Z,34.92
2018-09-06T15:57:58.933Z,35.28
2018-09-06T16:00:32.282Z,35.01
2018-09-06T16:03:06.509Z,34.59
2018-09-06T16:05:39.861Z,35.46
2018-09-06T16:08:13.203Z,35.76
2018-09-06T16:10:46.587Z,37.82
2018-09-06T16:13:19.909Z,37.38
2018-09-06T16:15:53.842Z,38.15
2018-09-06T16:18:27.180Z,38.74
2018-09-06T16:21:00.663Z,39.46
2018-09-06T16:23:34.275Z,39.99
2018-09-06T16:26:07.555Z,39.68
2018-09-06T16:28:41.825Z,40.19
2018-09-06T16:31:15.136Z,40.64
2018-09-06T16:33:49.524Z,41.18
2018-09-06T16:36:22.842Z,41.52
2018-09-06T16:38:56.324Z,41.65
2018-09-06T16:41:31.000Z,42.19
2018-09-06T16:44:04.323Z,42.47
2018-09-06T16:46:37.896Z,43.90
2018-09-06T16:49:11.244Z,45.00
2018-09-06T16:51:44.555Z,45.95
2018-09-06T16:54:18.116Z,47.13
2018-09-06T16:56:51.475Z,48.75
2018-09-06T16:59:24.788Z,50.90
2018-09-06T17:01:58.166Z,51.24
2018-09-06T17:04:31.550Z,51.87
2018-09-06T17:07:04.910Z,53.19
2018-09-06T17:09:38.410Z,52.95
2018-09-06T17:12:12.558Z,53.71
2018-09-06T17:14:45.930Z,54.60
2018-09-06T17:17:19.236Z,55.36
2018-09-06T17:19:52.585Z,55.53
2018-09-06T17:22:26.052Z,56.57
2018-09-06T17:24:59.391Z,57.19
2018-09-06T17:27:32.986Z,57.47
2018-09-06T17:30:06.446Z,56.98
2018-09-06T17:32:39.889Z,57.19
2018-09-06T17:35:13.283Z,57.99
2018-09-06T17:37:46.609Z,59.05
2018-09-06T17:40:20.099Z,58.91
2018-09-06T17:42:53.695Z,59.15
2018-09-06T17:45:27.045Z,59.16
2018-09-06T17:48:00.516Z,60.26
2018-09-06T17:50:33.835Z,59.94
2018-09-06T17:53:07.272Z,60.03
2018-09-06T17:55:40.594Z,60.72
2018-09-06T17:58:13.910Z,61.56
2018-09-06T18:01:04.269Z,62.85
2018-09-06T18:03:37.645Z,63.06
2018-09-06T18:06:16.100Z,62.99
2018-09-06T18:08:50.688Z,62.25
2018-09-06T18:11:24.130Z,63.16
2018-09-06T18:13:57.834Z,63.00
2018-09-06T18:16:31.284Z,63.18
2018-09-06T18:19:04.619Z,63.47
2018-09-06T18:21:37.965Z,63.51
2018-09-06T18:24:13.345Z,63.26
2018-09-06T18:26:46.669Z,63.17
2018-09-06T18:29:19.972Z,63.48
2018-09-06T18:31:53.355Z,63.61
2018-09-06T18:34:26.643Z,63.17
2018-09-06T18:37:00.133Z,63.30
2018-09-06T18:39:33.424Z,63.33
2018-09-06T18:42:06.910Z,63.45
2018-09-06T18:44:40.234Z,63.90
2018-09-06T18:47:13.645Z,63.49
2018-09-06T18:49:47.108Z,63.27
2018-09-06T18:52:20.402Z,63.47
2018-09-06T18:54:53.763Z,63.05
2018-09-06T18:57:27.169Z,63.31
2018-09-06T19:00:00.477Z,63.28
2018-09-06T19:02:33.888Z,63.94
2018-09-06T19:05:07.241Z,63.82
2018-09-06T19:07:41.531Z,64.02
2018-09-06T19:10:15.213Z,64.46
2018-09-06T19:12:48.658Z,64.83
2018-09-06T19:15:24.950Z,64.67
2018-09-06T19:17:58.285Z,64.98
2018-09-06T19:20:31.609Z,65.33
2018-09-06T19:23:04.921Z,65.04
2018-09-06T19:25:38.402Z,65.02
2018-09-06T19:28:11.762Z,65.41
2018-09-06T19:30:45.081Z,65.24
2018-09-06T19:33:18.387Z,64.85
2018-09-06T19:35:51.701Z,65.18
2018-09-06T19:38:25.058Z,65.14
2018-09-06T19:40:58.365Z,65.02
2018-09-06T19:43:31.701Z,65.12
2018-09-06T19:46:05.021Z,64.63
2018-09-06T19:48:38.373Z,65.07
2018-09-06T19:51:11.680Z,65.19
2018-09-06T19:53:45.009Z,65.07
2018-09-06T19:56:18.324Z,65.11
2018-09-06T19:58:51.756Z,65.00
2018-09-06T20:01:25.082Z,64.88
2018-09-06T20:03:58.418Z,64.87
2018-09-06T20:06:31.718Z,65.19
2018-09-06T20:09:06.473Z,65.25
2018-09-06T20:11:39.852Z,65.72
2018-09-06T20:14:13.285Z,65.99
2018-09-06T20:16:46.673Z,66.96
2018-09-06T20:19:20.014Z,66.94
2018-09-06T20:21:54.421Z,66.83
2018-09-06T20:24:27.772Z,66.92
2018-09-06T20:27:01.089Z,66.74
2018-09-06T20:29:34.437Z,67.41
2018-09-06T20:32:07.758Z,67.36
2018-09-06T20:34:41.078Z,67.59
2018-09-06T20:37:14.466Z,67.31
2018-09-06T20:39:47.793Z,67.86
2018-09-06T20:42:21.089Z,68.21
2018-09-06T20:44:54.411Z,68.15
2018-09-06T20:47:27.710Z,68.15
2018-09-06T20:50:01.147Z,67.64
2018-09-06T20:52:34.509Z,67.76
2018-09-06T20:55:07.815Z,68.22
2018-09-06T20:57:41.135Z,68.69
2018-09-06T21:00:14.482Z,68.56
2018-09-06T21:02:47.796Z,68.94
2018-09-06T21:05:21.189Z,69.30
2018-09-06T21:07:54.557Z,68.85
2018-09-06T21:10:27.925Z,69.09
2018-09-06T21:13:01.220Z,69.29
2018-09-06T21:15:34.582Z,69.10
2018-09-06T21:18:07.886Z,68.90
2018-09-06T21:20:41.213Z,69.82
2018-09-06T21:23:14.521Z,69.86
2018-09-06T21:25:47.837Z,70.48
2018-09-06T21:28:21.206Z,70.14
2018-09-06T21:30:54.525Z,70.06
2018-09-06T21:33:27.846Z,70.08
2018-09-06T21:36:01.217Z,70.32
2018-09-06T21:38:34.541Z,70.23
2018-09-06T21:41:07.921Z,70.22
2018-09-06T21:43:41.224Z,70.10
2018-09-06T21:46:14.581Z,70.29
2018-09-06T21:48:47.924Z,69.87
2018-09-06T21:51:21.272Z,69.93
2018-09-06T21:53:54.588Z,70.00
2018-09-06T21:56:27.909Z,69.88
2018-09-06T21:59:01.253Z,70.00
2018-09-06T22:01:34.612Z,69.86
2018-09-06T22:04:08.773Z,70.05
2018-09-06T22:06:42.099Z,69.88
2018-09-06T22:09:15.424Z,70.07
2018-09-06T22:11:48.821Z,69.76
2018-09-06T22:14:22.159Z,69.73
2018-09-06T22:16:55.489Z,69.81
2018-09-06T22:19:28.792Z,69.93
2018-09-06T22:22:02.130Z,70.06
2018-09-06T22:24:35.449Z,69.79
2018-09-06T22:27:08.840Z,70.17
2018-09-06T22:29:42.155Z,70.15
2018-09-06T22:32:15.501Z,70.42
2018-09-06T22:34:48.804Z,69.90
2018-09-06T22:37:22.147Z,70.13
2018-09-06T22:39:55.461Z,70.48
2018-09-06T22:42:30.094Z,70.19
2018-09-06T22:45:03.620Z,70.17
2018-09-06T22:47:37.085Z,70.54
2018-09-06T22:50:10.526Z,70.29
2018-09-06T22:52:44.064Z,70.40
2018-09-06T22:55:17.529Z,70.40
2018-09-06T22:57:51.075Z,70.47
2018-09-06T23:00:28.722Z,70.64
2018-09-06T23:03:07.496Z,70.62
2018-09-06T23:05:40.807Z,70.27
2018-09-06T23:08:14.351Z,70.64
2018-09-06T23:10:47.775Z,70.52
2018-09-06T23:13:21.213Z,70.34
2018-09-06T23:15:54.540Z,70.20
2018-09-06T23:18:27.904Z,70.38
2018-09-06T23:21:01.243Z,71.07
2018-09-06T23:23:34.581Z,70.66
2018-09-06T23:26:07.993Z,70.99
2018-09-06T23:28:41.453Z,70.73
2018-09-06T23:31:14.757Z,70.53
2018-09-06T23:33:48.074Z,71.08
2018-09-06T23:36:21.409Z,70.54
2018-09-06T23:38:54.751Z,70.70
2018-09-06T23:41:28.064Z,70.96
2018-09-06T23:44:01.398Z,70.97
2018-09-06T23:46:34.733Z,70.92
2018-09-06T23:49:08.226Z,70.58
2018-09-06T23:51:41.570Z,71.09
2018-09-06T23:54:14.890Z,70.82
2018-09-06T23:56:48.206Z,70.93
2018-09-06T23:59:21.529Z,70.87
